Decoded Metar for KJAC (JACKSON in WY, USA) (IATA:JAC) | Meteo·Mobile Aviation Weather
aviador You're here:

KJAC Decoded Metar

JACKSON in WY, USA
Report Time2018-09-26 04:56:00
UTC Time2018-09-26 05:06:29
Flight Rules vfr VFR
Wind010° at 05 kt
W.Decomp.*RWY 01: 4.9 kt HW 1.1 kt LCW
W.Rank010° ranks 1
Current wind is below 010° avg. (6.9)
Visibility9999 m
Phenomena:N/A
Clouds:N/A
Expected CloudBase > 2,800 ft AGL from Temp-Dew spread
CeilingNone
Temp-1°C (ISA -3)
Dew Point-8°C (59% RH)
AAT-5.7°C
QNH1027 hPa
Density Alt5,633 ft
Elevation6,434 ft
Report Wrong Elevation
Raw Report
KJAC 260456Z AUTO 01005KT 10SM CLR M01/M08 A3032 RMK AO2 SLP284
T10061078 FZRANO=

Extra information for KJAC:More info

Metar Taf Metar & Taf Last 4 Metars F.Rules Stats Wind Profile Meteogram Temp Stats Airport Information Weather charts Add Link Nearby VenuesMetar ALERT Operation Metar Decoded Social comments

AIRNAV info for KJAC